sensor_id;sensor_type;location;lat;lon;timestamp;temperature;humidity
6538;DHT22;3302;52.508;13.454;2024-03-07T00:01:01;6.40;99.90
6538;DHT22;3302;52.508;13.454;2024-03-07T00:03:29;6.40;99.90
6538;DHT22;3302;52.508;13.454;2024-03-07T00:05:55;6.40;99.90
6538;DHT22;3302;52.508;13.454;2024-03-07T00:08:20;6.40;99.90
6538;DHT22;3302;52.508;13.454;2024-03-07T00:10:47;6.50;99.90
6538;DHT22;3302;52.508;13.454;2024-03-07T00:13:13;6.50;99.90
6538;DHT22;3302;52.508;13.454;2024-03-07T00:15:39;6.50;99.90
6538;DHT22;3302;52.508;13.454;2024-03-07T00:18:06;6.50;99.90
6538;DHT22;3302;52.508;13.454;2024-03-07T00:20:31;6.40;99.90
6538;DHT22;3302;52.508;13.454;2024-03-07T00:22:57;6.40;99.90
6538;DHT22;3302;52.508;13.454;2024-03-07T00:25:23;6.50;99.90
6538;DHT22;3302;52.508;13.454;2024-03-07T00:27:49;6.50;99.90
6538;DHT22;3302;52.508;13.454;2024-03-07T00:30:18;6.50;99.90
6538;DHT22;3302;52.508;13.454;2024-03-07T00:32:48;6.50;99.90
6538;DHT22;3302;52.508;13.454;2024-03-07T00:35:15;6.50;99.90
6538;DHT22;3302;52.508;13.454;2024-03-07T00:37:40;6.50;99.90
6538;DHT22;3302;52.508;13.454;2024-03-07T00:40:07;6.50;99.90
6538;DHT22;3302;52.508;13.454;2024-03-07T00:42:33;6.40;99.90
6538;DHT22;3302;52.508;13.454;2024-03-07T00:44:59;6.40;99.90
6538;DHT22;3302;52.508;13.454;2024-03-07T00:47:25;6.50;99.90
6538;DHT22;3302;52.508;13.454;2024-03-07T00:49:50;6.40;99.90
6538;DHT22;3302;52.508;13.454;2024-03-07T00:52:16;6.50;99.90
6538;DHT22;3302;52.508;13.454;2024-03-07T00:54:42;6.50;99.90
6538;DHT22;3302;52.508;13.454;2024-03-07T00:57:08;6.40;99.90
6538;DHT22;3302;52.508;13.454;2024-03-07T00:59:34;6.40;99.90
6538;DHT22;3302;52.508;13.454;2024-03-07T01:02:00;6.40;99.90
6538;DHT22;3302;52.508;13.454;2024-03-07T01:04:26;6.40;99.90
6538;DHT22;3302;52.508;13.454;2024-03-07T01:06:59;6.40;99.90
6538;DHT22;3302;52.508;13.454;2024-03-07T01:09:26;6.40;99.90
6538;DHT22;3302;52.508;13.454;2024-03-07T01:11:54;6.40;99.90
6538;DHT22;3302;52.508;13.454;2024-03-07T01:14:21;6.30;99.90
6538;DHT22;3302;52.508;13.454;2024-03-07T01:16:47;6.20;99.90
6538;DHT22;3302;52.508;13.454;2024-03-07T01:19:13;6.30;99.90
6538;DHT22;3302;52.508;13.454;2024-03-07T01:21:40;6.20;99.90
6538;DHT22;3302;52.508;13.454;2024-03-07T01:24:06;6.20;99.90
6538;DHT22;3302;52.508;13.454;2024-03-07T01:26:32;6.30;99.90
6538;DHT22;3302;52.508;13.454;2024-03-07T01:28:59;6.30;99.90
6538;DHT22;3302;52.508;13.454;2024-03-07T01:31:25;6.20;99.90
6538;DHT22;3302;52.508;13.454;2024-03-07T01:33:51;6.20;99.90
6538;DHT22;3302;52.508;13.454;2024-03-07T01:36:18;6.20;99.90
6538;DHT22;3302;52.508;13.454;2024-03-07T01:38:45;6.20;99.90
6538;DHT22;3302;52.508;13.454;2024-03-07T01:41:10;6.10;99.90
6538;DHT22;3302;52.508;13.454;2024-03-07T01:43:36;6.00;99.90
6538;DHT22;3302;52.508;13.454;2024-03-07T01:46:02;6.00;99.90
6538;DHT22;3302;52.508;13.454;2024-03-07T01:48:29;6.00;99.90
6538;DHT22;3302;52.508;13.454;2024-03-07T01:51:00;5.90;99.90
6538;DHT22;3302;52.508;13.454;2024-03-07T01:53:29;5.90;99.90
6538;DHT22;3302;52.508;13.454;2024-03-07T01:55:56;5.90;99.90
6538;DHT22;3302;52.508;13.454;2024-03-07T01:58:24;5.90;99.90
6538;DHT22;3302;52.508;13.454;2024-03-07T02:00:50;5.90;99.90
6538;DHT22;3302;52.508;13.454;2024-03-07T02:03:16;5.80;99.90
6538;DHT22;3302;52.508;13.454;2024-03-07T02:05:43;5.80;99.90
6538;DHT22;3302;52.508;13.454;2024-03-07T02:08:09;5.70;99.90
6538;DHT22;3302;52.508;13.454;2024-03-07T02:10:35;5.80;99.90
6538;DHT22;3302;52.508;13.454;2024-03-07T02:13:01;5.80;99.90
6538;DHT22;3302;52.508;13.454;2024-03-07T02:15:27;5.80;99.90
6538;DHT22;3302;52.508;13.454;2024-03-07T02:17:53;5.70;99.90
6538;DHT22;3302;52.508;13.454;2024-03-07T02:20:19;5.70;99.90
6538;DHT22;3302;52.508;13.454;2024-03-07T02:22:45;5.80;99.90
6538;DHT22;3302;52.508;13.454;2024-03-07T02:25:11;5.70;99.90
6538;DHT22;3302;52.508;13.454;2024-03-07T02:27:37;5.70;99.90
6538;DHT22;3302;52.508;13.454;2024-03-07T02:30:03;5.70;99.90
6538;DHT22;3302;52.508;13.454;2024-03-07T02:32:34;5.70;99.90
6538;DHT22;3302;52.508;13.454;2024-03-07T02:35:00;5.60;99.90
6538;DHT22;3302;52.508;13.454;2024-03-07T02:37:25;5.60;99.90
6538;DHT22;3302;52.508;13.454;2024-03-07T02:39:51;5.60;99.90
6538;DHT22;3302;52.508;13.454;2024-03-07T02:42:17;5.60;99.90
6538;DHT22;3302;52.508;13.454;2024-03-07T02:44:43;5.60;99.90
6538;DHT22;3302;52.508;13.454;2024-03-07T02:47:09;5.50;99.90
6538;DHT22;3302;52.508;13.454;2024-03-07T02:49:35;5.50;99.90
6538;DHT22;3302;52.508;13.454;2024-03-07T02:52:00;5.50;99.90
6538;DHT22;3302;52.508;13.454;2024-03-07T02:54:27;5.40;99.90
6538;DHT22;3302;52.508;13.454;2024-03-07T02:56:52;5.30;99.90
6538;DHT22;3302;52.508;13.454;2024-03-07T02:59:18;5.30;99.90
6538;DHT22;3302;52.508;13.454;2024-03-07T03:01:44;5.30;99.90
6538;DHT22;3302;52.508;13.454;2024-03-07T03:04:10;5.30;99.90
6538;DHT22;3302;52.508;13.454;2024-03-07T03:06:36;5.30;99.90
6538;DHT22;3302;52.508;13.454;2024-03-07T03:09:02;5.30;99.90
6538;DHT22;3302;52.508;13.454;2024-03-07T03:11:30;5.20;99.90
6538;DHT22;3302;52.508;13.454;2024-03-07T03:13:56;5.10;99.90
6538;DHT22;3302;52.508;13.454;2024-03-07T03:16:21;5.20;99.90
6538;DHT22;3302;52.508;13.454;2024-03-07T03:18:47;5.20;99.90
6538;DHT22;3302;52.508;13.454;2024-03-07T03:21:14;5.20;99.90
6538;DHT22;3302;52.508;13.454;2024-03-07T03:23:41;5.10;99.90
6538;DHT22;3302;52.508;13.454;2024-03-07T03:26:06;5.10;99.90
6538;DHT22;3302;52.508;13.454;2024-03-07T03:28:32;5.00;99.90
6538;DHT22;3302;52.508;13.454;2024-03-07T03:30:58;5.00;99.90
6538;DHT22;3302;52.508;13.454;2024-03-07T03:33:24;5.00;99.90
6538;DHT22;3302;52.508;13.454;2024-03-07T03:35:50;4.90;99.90
6538;DHT22;3302;52.508;13.454;2024-03-07T03:38:16;4.90;99.90
6538;DHT22;3302;52.508;13.454;2024-03-07T03:40:43;4.90;99.90
6538;DHT22;3302;52.508;13.454;2024-03-07T03:43:10;4.90;99.90
6538;DHT22;3302;52.508;13.454;2024-03-07T03:45:35;4.90;99.90
6538;DHT22;3302;52.508;13.454;2024-03-07T03:48:02;4.80;99.90
6538;DHT22;3302;52.508;13.454;2024-03-07T03:50:28;4.80;99.90
6538;DHT22;3302;52.508;13.454;2024-03-07T03:52:54;4.80;99.90
6538;DHT22;3302;52.508;13.454;2024-03-07T03:55:20;4.80;99.90
6538;DHT22;3302;52.508;13.454;2024-03-07T03:57:47;4.80;99.90
6538;DHT22;3302;52.508;13.454;2024-03-07T04:00:13;4.70;99.90
6538;DHT22;3302;52.508;13.454;2024-03-07T04:02:43;4.60;99.90
6538;DHT22;3302;52.508;13.454;2024-03-07T04:05:11;4.70;99.90
6538;DHT22;3302;52.508;13.454;2024-03-07T04:07:37;4.70;99.90
6538;DHT22;3302;52.508;13.454;2024-03-07T04:10:04;4.60;99.90
6538;DHT22;3302;52.508;13.454;2024-03-07T04:12:38;4.60;99.90
6538;DHT22;3302;52.508;13.454;2024-03-07T04:15:05;4.50;99.90
6538;DHT22;3302;52.508;13.454;2024-03-07T04:17:33;4.50;99.90
6538;DHT22;3302;52.508;13.454;2024-03-07T04:20:04;4.50;99.90
6538;DHT22;3302;52.508;13.454;2024-03-07T04:22:33;4.50;99.90
6538;DHT22;3302;52.508;13.454;2024-03-07T04:25:00;4.50;99.90
6538;DHT22;3302;52.508;13.454;2024-03-07T04:27:27;4.40;99.90
6538;DHT22;3302;52.508;13.454;2024-03-07T04:29:53;4.40;99.90
6538;DHT22;3302;52.508;13.454;2024-03-07T04:32:19;4.40;99.90
6538;DHT22;3302;52.508;13.454;2024-03-07T04:34:45;4.50;99.90
6538;DHT22;3302;52.508;13.454;2024-03-07T04:37:11;4.50;99.90
6538;DHT22;3302;52.508;13.454;2024-03-07T04:39:40;4.50;99.90
6538;DHT22;3302;52.508;13.454;2024-03-07T04:42:07;4.40;99.90
6538;DHT22;3302;52.508;13.454;2024-03-07T04:44:34;4.40;99.90
6538;DHT22;3302;52.508;13.454;2024-03-07T04:47:05;4.40;99.90
6538;DHT22;3302;52.508;13.454;2024-03-07T04:49:32;4.30;99.90
6538;DHT22;3302;52.508;13.454;2024-03-07T04:51:59;4.30;99.90
6538;DHT22;3302;52.508;13.454;2024-03-07T04:54:26;4.20;99.90
6538;DHT22;3302;52.508;13.454;2024-03-07T04:56:53;4.20;99.90
6538;DHT22;3302;52.508;13.454;2024-03-07T04:59:20;4.10;99.90
6538;DHT22;3302;52.508;13.454;2024-03-07T05:01:47;4.10;99.90
6538;DHT22;3302;52.508;13.454;2024-03-07T05:04:14;4.20;99.90
6538;DHT22;3302;52.508;13.454;2024-03-07T05:06:40;4.20;99.90
6538;DHT22;3302;52.508;13.454;2024-03-07T05:09:08;4.20;99.90
6538;DHT22;3302;52.508;13.454;2024-03-07T05:11:35;4.20;99.90
6538;DHT22;3302;52.508;13.454;2024-03-07T05:14:02;4.20;99.90
6538;DHT22;3302;52.508;13.454;2024-03-07T05:16:30;4.10;99.90
6538;DHT22;3302;52.508;13.454;2024-03-07T05:18:56;4.10;99.90
6538;DHT22;3302;52.508;13.454;2024-03-07T05:21:26;4.00;99.90
6538;DHT22;3302;52.508;13.454;2024-03-07T05:23:58;4.10;99.90
6538;DHT22;3302;52.508;13.454;2024-03-07T05:26:24;4.00;99.90
6538;DHT22;3302;52.508;13.454;2024-03-07T05:28:50;4.10;99.90
6538;DHT22;3302;52.508;13.454;2024-03-07T05:31:17;4.00;99.90
6538;DHT22;3302;52.508;13.454;2024-03-07T05:33:45;4.00;99.90
6538;DHT22;3302;52.508;13.454;2024-03-07T05:36:11;4.00;99.90
6538;DHT22;3302;52.508;13.454;2024-03-07T05:38:43;4.00;99.90
6538;DHT22;3302;52.508;13.454;2024-03-07T05:41:12;3.90;99.90
6538;DHT22;3302;52.508;13.454;2024-03-07T05:43:41;3.90;99.90
6538;DHT22;3302;52.508;13.454;2024-03-07T05:46:07;3.90;99.90
6538;DHT22;3302;52.508;13.454;2024-03-07T05:48:34;3.80;99.90
6538;DHT22;3302;52.508;13.454;2024-03-07T05:51:00;3.80;99.90
6538;DHT22;3302;52.508;13.454;2024-03-07T05:53:26;3.70;99.90
6538;DHT22;3302;52.508;13.454;2024-03-07T05:55:52;3.80;99.90
6538;DHT22;3302;52.508;13.454;2024-03-07T05:58:18;3.70;99.90
6538;DHT22;3302;52.508;13.454;2024-03-07T06:00:46;3.70;99.90
6538;DHT22;3302;52.508;13.454;2024-03-07T06:03:16;3.70;99.90
6538;DHT22;3302;52.508;13.454;2024-03-07T06:05:44;3.70;99.90
6538;DHT22;3302;52.508;13.454;2024-03-07T06:08:22;3.70;99.90
6538;DHT22;3302;52.508;13.454;2024-03-07T06:10:48;3.70;99.90
6538;DHT22;3302;52.508;13.454;2024-03-07T06:13:16;3.70;99.90
6538;DHT22;3302;52.508;13.454;2024-03-07T06:15:46;3.80;99.90
6538;DHT22;3302;52.508;13.454;2024-03-07T06:18:13;3.70;99.90
6538;DHT22;3302;52.508;13.454;2024-03-07T06:20:43;3.70;99.90
6538;DHT22;3302;52.508;13.454;2024-03-07T06:23:09;3.60;99.90
6538;DHT22;3302;52.508;13.454;2024-03-07T06:25:37;3.60;99.90
6538;DHT22;3302;52.508;13.454;2024-03-07T06:28:13;3.60;99.90
6538;DHT22;3302;52.508;13.454;2024-03-07T06:30:41;3.50;99.90
6538;DHT22;3302;52.508;13.454;2024-03-07T06:33:07;3.60;99.90
6538;DHT22;3302;52.508;13.454;2024-03-07T06:35:33;3.60;99.90
6538;DHT22;3302;52.508;13.454;2024-03-07T06:38:09;3.60;99.90
6538;DHT22;3302;52.508;13.454;2024-03-07T06:40:36;3.70;99.90
6538;DHT22;3302;52.508;13.454;2024-03-07T06:43:02;3.70;99.90
6538;DHT22;3302;52.508;13.454;2024-03-07T06:45:35;3.70;99.90
6538;DHT22;3302;52.508;13.454;2024-03-07T06:48:11;3.70;99.90
6538;DHT22;3302;52.508;13.454;2024-03-07T06:50:40;3.70;99.90
6538;DHT22;3302;52.508;13.454;2024-03-07T06:53:06;3.60;99.90
6538;DHT22;3302;52.508;13.454;2024-03-07T06:55:33;3.60;99.90
6538;DHT22;3302;52.508;13.454;2024-03-07T06:58:02;3.60;99.90
6538;DHT22;3302;52.508;13.454;2024-03-07T07:00:30;3.60;99.90
6538;DHT22;3302;52.508;13.454;2024-03-07T07:02:57;3.80;99.90
6538;DHT22;3302;52.508;13.454;2024-03-07T07:05:23;3.80;99.90
6538;DHT22;3302;52.508;13.454;2024-03-07T07:07:49;3.70;99.90
6538;DHT22;3302;52.508;13.454;2024-03-07T07:10:16;3.70;99.90
6538;DHT22;3302;52.508;13.454;2024-03-07T07:12:50;3.80;99.90
6538;DHT22;3302;52.508;13.454;2024-03-07T07:15:18;3.70;99.90
6538;DHT22;3302;52.508;13.454;2024-03-07T07:17:45;3.80;99.90
6538;DHT22;3302;52.508;13.454;2024-03-07T07:20:13;4.00;99.90
6538;DHT22;3302;52.508;13.454;2024-03-07T07:22:43;3.80;99.90
6538;DHT22;3302;52.508;13.454;2024-03-07T07:25:09;3.80;99.90
6538;DHT22;3302;52.508;13.454;2024-03-07T07:27:43;3.80;99.90
6538;DHT22;3302;52.508;13.454;2024-03-07T07:30:10;3.90;99.90
6538;DHT22;3302;52.508;13.454;2024-03-07T07:32:36;4.00;99.90
6538;DHT22;3302;52.508;13.454;2024-03-07T07:35:02;4.10;99.90
6538;DHT22;3302;52.508;13.454;2024-03-07T07:37:28;4.20;99.90
6538;DHT22;3302;52.508;13.454;2024-03-07T07:39:54;4.20;99.90
6538;DHT22;3302;52.508;13.454;2024-03-07T07:42:19;4.30;99.90
6538;DHT22;3302;52.508;13.454;2024-03-07T07:44:45;4.30;99.90
6538;DHT22;3302;52.508;13.454;2024-03-07T07:47:11;4.20;99.90
6538;DHT22;3302;52.508;13.454;2024-03-07T07:49:40;4.20;99.90
6538;DHT22;3302;52.508;13.454;2024-03-07T07:52:07;4.20;99.90
6538;DHT22;3302;52.508;13.454;2024-03-07T07:54:34;4.20;99.90
6538;DHT22;3302;52.508;13.454;2024-03-07T07:57:00;4.20;99.90
6538;DHT22;3302;52.508;13.454;2024-03-07T07:59:25;4.30;99.90
6538;DHT22;3302;52.508;13.454;2024-03-07T08:01:51;4.20;99.90
6538;DHT22;3302;52.508;13.454;2024-03-07T08:04:21;4.30;99.90
6538;DHT22;3302;52.508;13.454;2024-03-07T08:06:47;4.40;99.90
6538;DHT22;3302;52.508;13.454;2024-03-07T08:09:13;4.40;99.70
6538;DHT22;3302;52.508;13.454;2024-03-07T08:11:42;4.40;99.60
6538;DHT22;3302;52.508;13.454;2024-03-07T08:14:08;4.40;99.60
6538;DHT22;3302;52.508;13.454;2024-03-07T08:16:34;4.40;99.50
6538;DHT22;3302;52.508;13.454;2024-03-07T08:19:00;4.50;99.60
6538;DHT22;3302;52.508;13.454;2024-03-07T08:21:25;4.50;99.20
6538;DHT22;3302;52.508;13.454;2024-03-07T08:23:53;4.60;98.90
6538;DHT22;3302;52.508;13.454;2024-03-07T08:26:20;4.80;99.80
6538;DHT22;3302;52.508;13.454;2024-03-07T08:28:46;4.80;98.50
6538;DHT22;3302;52.508;13.454;2024-03-07T08:31:12;4.80;98.60
6538;DHT22;3302;52.508;13.454;2024-03-07T08:33:38;4.80;98.10
6538;DHT22;3302;52.508;13.454;2024-03-07T08:36:04;4.90;98.40
6538;DHT22;3302;52.508;13.454;2024-03-07T08:38:32;5.10;98.00
6538;DHT22;3302;52.508;13.454;2024-03-07T08:40:58;5.20;97.20
6538;DHT22;3302;52.508;13.454;2024-03-07T08:43:24;5.30;97.00
6538;DHT22;3302;52.508;13.454;2024-03-07T08:45:52;5.20;96.30
6538;DHT22;3302;52.508;13.454;2024-03-07T08:48:18;5.20;96.50
6538;DHT22;3302;52.508;13.454;2024-03-07T08:50:45;5.20;96.50
6538;DHT22;3302;52.508;13.454;2024-03-07T08:53:10;5.30;96.20
6538;DHT22;3302;52.508;13.454;2024-03-07T08:55:36;5.30;96.00
6538;DHT22;3302;52.508;13.454;2024-03-07T08:58:02;5.30;95.80
6538;DHT22;3302;52.508;13.454;2024-03-07T09:00:28;5.30;95.20
6538;DHT22;3302;52.508;13.454;2024-03-07T09:02:55;5.40;95.80
6538;DHT22;3302;52.508;13.454;2024-03-07T09:05:24;5.60;94.70
6538;DHT22;3302;52.508;13.454;2024-03-07T09:07:50;5.50;94.10
6538;DHT22;3302;52.508;13.454;2024-03-07T09:10:16;5.60;94.30
6538;DHT22;3302;52.508;13.454;2024-03-07T09:12:46;5.50;93.90
6538;DHT22;3302;52.508;13.454;2024-03-07T09:15:14;5.60;93.40
6538;DHT22;3302;52.508;13.454;2024-03-07T09:17:42;5.70;93.30
6538;DHT22;3302;52.508;13.454;2024-03-07T09:20:09;5.90;92.50
6538;DHT22;3302;52.508;13.454;2024-03-07T09:22:46;5.90;92.40
6538;DHT22;3302;52.508;13.454;2024-03-07T09:25:16;5.90;92.30
6538;DHT22;3302;52.508;13.454;2024-03-07T09:27:44;6.10;91.60
6538;DHT22;3302;52.508;13.454;2024-03-07T09:30:10;6.20;91.50
6538;DHT22;3302;52.508;13.454;2024-03-07T09:32:44;6.20;90.50
6538;DHT22;3302;52.508;13.454;2024-03-07T09:35:11;6.10;90.60
6538;DHT22;3302;52.508;13.454;2024-03-07T09:37:40;6.20;90.70
6538;DHT22;3302;52.508;13.454;2024-03-07T09:40:08;6.30;89.70
6538;DHT22;3302;52.508;13.454;2024-03-07T09:42:37;6.40;88.90
6538;DHT22;3302;52.508;13.454;2024-03-07T09:45:07;6.40;87.00
6538;DHT22;3302;52.508;13.454;2024-03-07T09:47:34;6.40;86.70
6538;DHT22;3302;52.508;13.454;2024-03-07T09:49:59;6.60;85.90
6538;DHT22;3302;52.508;13.454;2024-03-07T09:52:26;6.80;84.90
6538;DHT22;3302;52.508;13.454;2024-03-07T09:54:52;6.90;83.10
6538;DHT22;3302;52.508;13.454;2024-03-07T09:57:19;6.60;80.90
6538;DHT22;3302;52.508;13.454;2024-03-07T09:59:46;6.70;81.60
6538;DHT22;3302;52.508;13.454;2024-03-07T10:02:13;6.70;80.90
6538;DHT22;3302;52.508;13.454;2024-03-07T10:04:48;6.80;80.40
6538;DHT22;3302;52.508;13.454;2024-03-07T10:07:17;6.90;78.80
6538;DHT22;3302;52.508;13.454;2024-03-07T10:09:44;6.90;78.70
6538;DHT22;3302;52.508;13.454;2024-03-07T10:12:10;7.00;78.80
6538;DHT22;3302;52.508;13.454;2024-03-07T10:14:38;6.90;77.20
6538;DHT22;3302;52.508;13.454;2024-03-07T10:17:05;7.10;77.60
6538;DHT22;3302;52.508;13.454;2024-03-07T10:19:31;7.10;77.40
6538;DHT22;3302;52.508;13.454;2024-03-07T10:21:56;7.30;76.70
6538;DHT22;3302;52.508;13.454;2024-03-07T10:24:27;7.30;75.90
6538;DHT22;3302;52.508;13.454;2024-03-07T10:26:54;7.40;74.80
6538;DHT22;3302;52.508;13.454;2024-03-07T10:29:22;7.60;73.00
6538;DHT22;3302;52.508;13.454;2024-03-07T10:31:49;7.60;72.30
6538;DHT22;3302;52.508;13.454;2024-03-07T10:34:15;7.60;72.70
6538;DHT22;3302;52.508;13.454;2024-03-07T10:36:43;7.70;71.90
6538;DHT22;3302;52.508;13.454;2024-03-07T10:39:09;7.60;72.20
6538;DHT22;3302;52.508;13.454;2024-03-07T10:41:49;7.70;71.80
6538;DHT22;3302;52.508;13.454;2024-03-07T10:44:38;7.70;71.80
6538;DHT22;3302;52.508;13.454;2024-03-07T10:47:07;7.80;71.00
6538;DHT22;3302;52.508;13.454;2024-03-07T10:49:36;7.70;70.80
6538;DHT22;3302;52.508;13.454;2024-03-07T10:52:13;7.70;70.30
6538;DHT22;3302;52.508;13.454;2024-03-07T10:54:51;7.80;68.70
6538;DHT22;3302;52.508;13.454;2024-03-07T10:57:27;7.90;68.60
6538;DHT22;3302;52.508;13.454;2024-03-07T10:59:59;7.80;69.50
6538;DHT22;3302;52.508;13.454;2024-03-07T11:02:43;8.10;68.50
6538;DHT22;3302;52.508;13.454;2024-03-07T11:05:13;8.10;68.50
6538;DHT22;3302;52.508;13.454;2024-03-07T11:07:41;7.80;67.10
6538;DHT22;3302;52.508;13.454;2024-03-07T11:10:08;7.70;69.00
6538;DHT22;3302;52.508;13.454;2024-03-07T11:12:39;8.00;69.70
6538;DHT22;3302;52.508;13.454;2024-03-07T11:15:08;8.00;68.10
6538;DHT22;3302;52.508;13.454;2024-03-07T11:17:44;8.00;68.10
6538;DHT22;3302;52.508;13.454;2024-03-07T11:20:37;7.90;67.70
6538;DHT22;3302;52.508;13.454;2024-03-07T11:23:26;7.90;68.40
6538;DHT22;3302;52.508;13.454;2024-03-07T11:26:04;8.10;67.70
6538;DHT22;3302;52.508;13.454;2024-03-07T11:28:35;8.10;67.70
6538;DHT22;3302;52.508;13.454;2024-03-07T11:31:10;8.10;68.00
6538;DHT22;3302;52.508;13.454;2024-03-07T11:33:38;7.60;68.90
6538;DHT22;3302;52.508;13.454;2024-03-07T11:36:08;7.80;68.30
6538;DHT22;3302;52.508;13.454;2024-03-07T11:38:50;7.80;67.60
6538;DHT22;3302;52.508;13.454;2024-03-07T11:41:19;7.90;68.50
6538;DHT22;3302;52.508;13.454;2024-03-07T11:43:45;7.70;67.20
6538;DHT22;3302;52.508;13.454;2024-03-07T11:46:11;8.00;68.50
6538;DHT22;3302;52.508;13.454;2024-03-07T11:48:42;8.00;67.50
6538;DHT22;3302;52.508;13.454;2024-03-07T11:51:12;8.10;68.20
6538;DHT22;3302;52.508;13.454;2024-03-07T11:53:39;8.10;68.90
6538;DHT22;3302;52.508;13.454;2024-03-07T11:56:05;8.10;68.20
6538;DHT22;3302;52.508;13.454;2024-03-07T11:58:38;8.00;67.40
6538;DHT22;3302;52.508;13.454;2024-03-07T12:01:08;8.10;67.50
6538;DHT22;3302;52.508;13.454;2024-03-07T12:03:36;8.10;67.10
6538;DHT22;3302;52.508;13.454;2024-03-07T12:06:03;8.10;68.10
6538;DHT22;3302;52.508;13.454;2024-03-07T12:08:29;7.90;68.50
6538;DHT22;3302;52.508;13.454;2024-03-07T12:10:55;7.90;69.00
6538;DHT22;3302;52.508;13.454;2024-03-07T12:13:22;8.00;66.90
6538;DHT22;3302;52.508;13.454;2024-03-07T12:15:50;7.70;66.00
6538;DHT22;3302;52.508;13.454;2024-03-07T12:18:18;7.80;66.60
6538;DHT22;3302;52.508;13.454;2024-03-07T12:20:46;8.00;66.80
6538;DHT22;3302;52.508;13.454;2024-03-07T12:23:16;8.00;67.50
6538;DHT22;3302;52.508;13.454;2024-03-07T12:25:45;7.90;67.70
6538;DHT22;3302;52.508;13.454;2024-03-07T12:28:12;8.00;67.00
6538;DHT22;3302;52.508;13.454;2024-03-07T12:30:55;8.10;65.70
6538;DHT22;3302;52.508;13.454;2024-03-07T12:33:22;8.00;65.30
6538;DHT22;3302;52.508;13.454;2024-03-07T12:35:52;8.10;65.00
6538;DHT22;3302;52.508;13.454;2024-03-07T12:38:19;8.20;64.20
6538;DHT22;3302;52.508;13.454;2024-03-07T12:40:46;8.00;64.60
6538;DHT22;3302;52.508;13.454;2024-03-07T12:43:21;7.90;64.70
6538;DHT22;3302;52.508;13.454;2024-03-07T12:45:51;8.10;65.60
6538;DHT22;3302;52.508;13.454;2024-03-07T12:48:18;8.20;61.30
6538;DHT22;3302;52.508;13.454;2024-03-07T12:50:48;8.30;59.50
6538;DHT22;3302;52.508;13.454;2024-03-07T12:53:24;8.10;57.90
6538;DHT22;3302;52.508;13.454;2024-03-07T12:55:51;8.20;58.70
6538;DHT22;3302;52.508;13.454;2024-03-07T12:58:22;8.20;58.50
6538;DHT22;3302;52.508;13.454;2024-03-07T13:00:52;8.20;58.20
6538;DHT22;3302;52.508;13.454;2024-03-07T13:03:18;8.00;59.60
6538;DHT22;3302;52.508;13.454;2024-03-07T13:05:44;8.00;60.00
6538;DHT22;3302;52.508;13.454;2024-03-07T13:08:10;8.00;61.30
6538;DHT22;3302;52.508;13.454;2024-03-07T13:10:42;8.00;61.20
6538;DHT22;3302;52.508;13.454;2024-03-07T13:13:08;8.10;62.00
6538;DHT22;3302;52.508;13.454;2024-03-07T13:15:41;8.10;62.30
6538;DHT22;3302;52.508;13.454;2024-03-07T13:18:08;8.00;63.60
6538;DHT22;3302;52.508;13.454;2024-03-07T13:20:35;8.00;62.30
6538;DHT22;3302;52.508;13.454;2024-03-07T13:23:02;8.10;60.70
6538;DHT22;3302;52.508;13.454;2024-03-07T13:25:29;8.30;59.30
6538;DHT22;3302;52.508;13.454;2024-03-07T13:30:34;8.10;57.10
6538;DHT22;3302;52.508;13.454;2024-03-07T13:33:02;8.10;56.50
6538;DHT22;3302;52.508;13.454;2024-03-07T13:35:31;8.10;57.70
6538;DHT22;3302;52.508;13.454;2024-03-07T13:37:57;8.30;57.80
6538;DHT22;3302;52.508;13.454;2024-03-07T13:40:25;8.20;57.90
6538;DHT22;3302;52.508;13.454;2024-03-07T13:42:55;8.30;60.10
6538;DHT22;3302;52.508;13.454;2024-03-07T13:45:31;8.40;57.90
6538;DHT22;3302;52.508;13.454;2024-03-07T13:47:58;8.30;57.40
6538;DHT22;3302;52.508;13.454;2024-03-07T13:50:26;8.30;56.90
6538;DHT22;3302;52.508;13.454;2024-03-07T13:52:55;8.40;54.90
6538;DHT22;3302;52.508;13.454;2024-03-07T14:27:38;8.30;59.20
6538;DHT22;3302;52.508;13.454;2024-03-07T14:30:19;8.50;60.00
6538;DHT22;3302;52.508;13.454;2024-03-07T14:32:54;8.40;58.70
6538;DHT22;3302;52.508;13.454;2024-03-07T14:35:35;8.50;59.60
6538;DHT22;3302;52.508;13.454;2024-03-07T14:38:23;8.60;59.70
6538;DHT22;3302;52.508;13.454;2024-03-07T14:40:51;8.40;60.30
6538;DHT22;3302;52.508;13.454;2024-03-07T14:43:18;8.30;61.50
6538;DHT22;3302;52.508;13.454;2024-03-07T14:45:46;8.40;60.30
6538;DHT22;3302;52.508;13.454;2024-03-07T14:48:15;8.60;60.40
6538;DHT22;3302;52.508;13.454;2024-03-07T14:50:43;8.80;60.10
6538;DHT22;3302;52.508;13.454;2024-03-07T14:53:13;8.70;60.40
6538;DHT22;3302;52.508;13.454;2024-03-07T14:55:42;8.60;60.20
6538;DHT22;3302;52.508;13.454;2024-03-07T14:58:09;8.80;60.80
6538;DHT22;3302;52.508;13.454;2024-03-07T15:00:38;9.10;59.30
6538;DHT22;3302;52.508;13.454;2024-03-07T15:03:14;8.70;59.00
6538;DHT22;3302;52.508;13.454;2024-03-07T15:05:43;8.80;60.70
6538;DHT22;3302;52.508;13.454;2024-03-07T15:08:13;9.30;59.40
6538;DHT22;3302;52.508;13.454;2024-03-07T15:10:44;9.40;59.40
6538;DHT22;3302;52.508;13.454;2024-03-07T15:13:12;9.30;57.50
6538;DHT22;3302;52.508;13.454;2024-03-07T15:15:39;8.70;56.50
6538;DHT22;3302;52.508;13.454;2024-03-07T15:18:06;8.80;56.90
6538;DHT22;3302;52.508;13.454;2024-03-07T15:20:32;8.90;57.00
6538;DHT22;3302;52.508;13.454;2024-03-07T15:23:02;9.30;57.60
6538;DHT22;3302;52.508;13.454;2024-03-07T15:25:32;8.90;57.10
6538;DHT22;3302;52.508;13.454;2024-03-07T15:27:59;8.80;57.70
6538;DHT22;3302;52.508;13.454;2024-03-07T15:30:26;8.80;56.60
6538;DHT22;3302;52.508;13.454;2024-03-07T15:33:01;8.70;57.80
6538;DHT22;3302;52.508;13.454;2024-03-07T15:35:27;8.80;57.00
6538;DHT22;3302;52.508;13.454;2024-03-07T15:37:53;8.70;57.10
6538;DHT22;3302;52.508;13.454;2024-03-07T15:40:20;9.40;57.40
6538;DHT22;3302;52.508;13.454;2024-03-07T15:42:48;9.10;56.60
6538;DHT22;3302;52.508;13.454;2024-03-07T15:45:21;8.80;57.00
6538;DHT22;3302;52.508;13.454;2024-03-07T15:47:52;8.50;57.00
6538;DHT22;3302;52.508;13.454;2024-03-07T15:50:18;8.50;57.10
6538;DHT22;3302;52.508;13.454;2024-03-07T15:52:45;8.60;58.00
6538;DHT22;3302;52.508;13.454;2024-03-07T15:55:12;8.60;57.80
6538;DHT22;3302;52.508;13.454;2024-03-07T15:57:54;8.20;58.80
6538;DHT22;3302;52.508;13.454;2024-03-07T16:00:25;8.20;59.10
6538;DHT22;3302;52.508;13.454;2024-03-07T16:03:00;8.20;59.40
6538;DHT22;3302;52.508;13.454;2024-03-07T16:05:31;8.10;59.10
6538;DHT22;3302;52.508;13.454;2024-03-07T16:07:58;8.10;59.50
6538;DHT22;3302;52.508;13.454;2024-03-07T16:10:29;8.10;59.70
6538;DHT22;3302;52.508;13.454;2024-03-07T16:12:59;8.30;60.10
6538;DHT22;3302;52.508;13.454;2024-03-07T16:15:27;8.10;60.00
6538;DHT22;3302;52.508;13.454;2024-03-07T16:17:54;8.00;60.70
6538;DHT22;3302;52.508;13.454;2024-03-07T16:20:23;8.20;60.70
6538;DHT22;3302;52.508;13.454;2024-03-07T16:22:48;8.00;60.50
6538;DHT22;3302;52.508;13.454;2024-03-07T16:25:16;8.10;61.20
6538;DHT22;3302;52.508;13.454;2024-03-07T16:27:42;8.10;61.20
6538;DHT22;3302;52.508;13.454;2024-03-07T16:30:16;7.80;60.90
6538;DHT22;3302;52.508;13.454;2024-03-07T16:32:47;7.70;61.90
6538;DHT22;3302;52.508;13.454;2024-03-07T16:35:18;7.80;62.00
6538;DHT22;3302;52.508;13.454;2024-03-07T16:37:48;7.80;62.00
6538;DHT22;3302;52.508;13.454;2024-03-07T16:40:18;7.70;62.30
6538;DHT22;3302;52.508;13.454;2024-03-07T16:42:52;7.50;62.60